Time;durP1;ratioP1;P1;durP2;ratioP2;P2;SDS_P1;SDS_P2;PMS_P1;PMS_P2;Temp;Humidity;BMP_temperature;BMP_pressure;BME280_temperature;BME280_humidity;BME280_pressure;Samples;Min_cycle;Max_cycle;Signal;HPM_P1;HPM_P2
2022/06/09 00:00:21;;;;;;;;;;;14.60;99.90;;;;;;5075665;28;19942;-70
2022/06/09 00:02:49;;;;;;;;;;;14.70;99.90;;;;;;5061421;28;20292;-68
2022/06/09 00:05:17;;;;;;;;;;;14.60;99.90;;;;;;5037688;28;19932;-69
2022/06/09 00:07:44;;;;;;;;;;;14.70;99.90;;;;;;5037625;28;19920;-70
2022/06/09 00:10:13;;;;;;;;;;;14.70;99.90;;;;;;5036850;28;19935;-69
2022/06/09 00:12:40;;;;;;;;;;;14.70;99.90;;;;;;5055522;28;19921;-70
2022/06/09 00:15:08;;;;;;;;;;;14.70;99.90;;;;;;5037385;28;19920;-70
2022/06/09 00:17:35;;;;;;;;;;;14.70;99.90;;;;;;5036876;28;19929;-70
2022/06/09 00:20:03;;;;;;;;;;;14.70;99.90;;;;;;5055389;28;19921;-69
2022/06/09 00:22:31;;;;;;;;;;;14.70;99.90;;;;;;5055108;28;19920;-70
2022/06/09 00:24:57;;;;;;;;;;;14.70;99.90;;;;;;5036409;28;19928;-71
2022/06/09 00:27:24;;;;;;;;;;;14.70;99.90;;;;;;5055414;28;19925;-71
2022/06/09 00:29:51;;;;;;;;;;;14.70;99.90;;;;;;5055167;28;19921;-70
2022/06/09 00:32:18;;;;;;;;;;;14.70;99.90;;;;;;5036324;28;19942;-70
2022/06/09 00:34:44;;;;;;;;;;;14.70;99.90;;;;;;5037176;28;19921;-70
2022/06/09 00:37:11;;;;;;;;;;;14.60;99.90;;;;;;5037138;28;19921;-70
2022/06/09 00:39:39;;;;;;;;;;;14.70;99.90;;;;;;5054557;28;20334;-70
2022/06/09 00:42:08;;;;;;;;;;;14.60;99.90;;;;;;5036377;28;19920;-70
2022/06/09 00:44:37;;;;;;;;;;;14.60;99.90;;;;;;5059061;28;19928;-71
2022/06/09 00:47:05;;;;;;;;;;;14.60;99.90;;;;;;5056577;28;19921;-70
2022/06/09 00:49:34;;;;;;;;;;;14.60;99.90;;;;;;5057133;28;19920;-71
2022/06/09 00:52:02;;;;;;;;;;;14.60;99.90;;;;;;5056475;28;19927;-70
2022/06/09 00:54:30;;;;;;;;;;;14.60;99.90;;;;;;5074632;28;19927;-71
2022/06/09 00:57:01;;;;;;;;;;;14.60;99.90;;;;;;5056532;28;19966;-71
2022/06/09 00:59:28;;;;;;;;;;;14.60;99.90;;;;;;5067421;28;19975;-70
2022/06/09 01:01:54;;;;;;;;;;;14.60;99.90;;;;;;5036421;28;20069;-71
2022/06/09 01:04:22;;;;;;;;;;;14.60;99.90;;;;;;5037059;28;19921;-71
2022/06/09 01:06:50;;;;;;;;;;;14.60;99.90;;;;;;5035791;28;19974;-71
2022/06/09 01:09:18;;;;;;;;;;;14.50;99.90;;;;;;5037489;28;19928;-70
2022/06/09 01:11:46;;;;;;;;;;;14.50;99.90;;;;;;5036393;28;19978;-71
2022/06/09 01:14:16;;;;;;;;;;;14.50;99.90;;;;;;5035267;28;20395;-71
2022/06/09 01:16:48;;;;;;;;;;;14.40;99.90;;;;;;5036498;28;19920;-71
2022/06/09 01:19:24;;;;;;;;;;;14.40;99.90;;;;;;5036406;28;19920;-71
2022/06/09 01:22:05;;;;;;;;;;;14.40;99.90;;;;;;5035691;28;19921;-71
2022/06/09 01:25:00;;;;;;;;;;;14.40;99.90;;;;;;5053937;28;19944;-70
2022/06/09 01:27:40;;;;;;;;;;;14.40;99.90;;;;;;5053184;28;19928;-70
2022/06/09 01:30:15;;;;;;;;;;;14.40;99.90;;;;;;5036220;28;19932;-71
2022/06/09 01:32:49;;;;;;;;;;;14.40;99.90;;;;;;5036143;28;19975;-71
2022/06/09 01:35:20;;;;;;;;;;;14.40;99.90;;;;;;5053067;28;20364;-71
2022/06/09 01:37:48;;;;;;;;;;;14.40;99.90;;;;;;5067604;28;19924;-70
2022/06/09 01:40:16;;;;;;;;;;;14.40;99.90;;;;;;5054210;28;19920;-71
2022/06/09 01:42:44;;;;;;;;;;;14.40;99.90;;;;;;5072866;28;19973;-71
2022/06/09 01:45:13;;;;;;;;;;;14.40;99.90;;;;;;5056106;28;19921;-69
2022/06/09 01:47:43;;;;;;;;;;;14.40;99.90;;;;;;5055408;28;20007;-70
2022/06/09 01:50:22;;;;;;;;;;;14.40;99.90;;;;;;5073125;28;19920;-71
2022/06/09 01:52:50;;;;;;;;;;;14.40;99.90;;;;;;5073541;28;19928;-69
2022/06/09 01:55:18;;;;;;;;;;;14.40;99.90;;;;;;5064181;28;19931;-69
2022/06/09 01:57:47;;;;;;;;;;;14.40;99.90;;;;;;5052880;28;19927;-70
2022/06/09 02:00:15;;;;;;;;;;;14.40;99.90;;;;;;5053484;28;19928;-71
2022/06/09 02:02:46;;;;;;;;;;;14.40;99.90;;;;;;5034482;28;19924;-71
2022/06/09 02:05:16;;;;;;;;;;;14.40;99.90;;;;;;5062367;28;20011;-70
2022/06/09 02:07:43;;;;;;;;;;;14.40;99.90;;;;;;5055672;28;19974;-69
2022/06/09 02:10:17;;;;;;;;;;;14.40;99.90;;;;;;5072762;28;20273;-69
2022/06/09 02:12:45;;;;;;;;;;;14.40;99.90;;;;;;5055252;28;20368;-69
2022/06/09 02:15:14;;;;;;;;;;;14.30;99.90;;;;;;5073526;28;19974;-70
2022/06/09 02:17:44;;;;;;;;;;;14.40;99.90;;;;;;5072435;28;19927;-69
2022/06/09 02:20:11;;;;;;;;;;;14.40;99.90;;;;;;5055729;28;19920;-69
2022/06/09 02:22:39;;;;;;;;;;;14.30;99.90;;;;;;5054726;28;19924;-70
2022/06/09 02:25:06;;;;;;;;;;;14.30;99.90;;;;;;5072592;28;19927;-70
2022/06/09 02:27:33;;;;;;;;;;;14.30;99.90;;;;;;5054973;28;19932;-70
2022/06/09 02:30:00;;;;;;;;;;;14.20;99.90;;;;;;5055104;28;20026;-70
2022/06/09 02:32:27;;;;;;;;;;;14.20;99.90;;;;;;5054792;28;19999;-70
2022/06/09 02:34:54;;;;;;;;;;;14.20;99.90;;;;;;5048661;28;19920;-70
2022/06/09 02:37:20;;;;;;;;;;;14.10;99.90;;;;;;5035463;28;19971;-70
2022/06/09 02:39:48;;;;;;;;;;;14.10;99.90;;;;;;5052581;28;19921;-70
2022/06/09 02:42:15;;;;;;;;;;;14.10;99.90;;;;;;5052855;28;19944;-69
2022/06/09 02:44:42;;;;;;;;;;;14.10;99.90;;;;;;5052434;28;19924;-70
2022/06/09 02:47:09;;;;;;;;;;;14.10;99.90;;;;;;5035152;28;19931;-70
2022/06/09 02:49:35;;;;;;;;;;;14.10;99.90;;;;;;5053019;28;19925;-70
2022/06/09 02:52:02;;;;;;;;;;;14.10;99.90;;;;;;5034427;28;19944;-70
2022/06/09 02:54:29;;;;;;;;;;;14.00;99.90;;;;;;5035363;28;19975;-70
2022/06/09 02:56:57;;;;;;;;;;;14.00;99.90;;;;;;5053150;28;19921;-70
2022/06/09 02:59:23;;;;;;;;;;;14.00;99.90;;;;;;5052527;28;19924;-69
2022/06/09 03:01:50;;;;;;;;;;;14.00;99.90;;;;;;5034905;28;20260;-70
2022/06/09 03:04:17;;;;;;;;;;;13.90;99.90;;;;;;5052949;28;19921;-70
2022/06/09 03:06:44;;;;;;;;;;;14.00;99.90;;;;;;5054019;28;19928;-70
2022/06/09 03:09:10;;;;;;;;;;;13.90;99.90;;;;;;5039270;28;20257;-71
2022/06/09 03:11:37;;;;;;;;;;;14.00;99.90;;;;;;5038427;28;19974;-71
2022/06/09 03:14:05;;;;;;;;;;;14.00;99.90;;;;;;5038563;28;19982;-69
2022/06/09 03:16:32;;;;;;;;;;;14.00;99.90;;;;;;5056544;28;19921;-70
2022/06/09 03:18:59;;;;;;;;;;;14.00;99.90;;;;;;5072995;28;19924;-71
2022/06/09 03:21:26;;;;;;;;;;;14.00;99.90;;;;;;5058025;28;19990;-71
2022/06/09 03:23:52;;;;;;;;;;;14.00;99.90;;;;;;5076319;28;20023;-69
2022/06/09 03:26:19;;;;;;;;;;;14.00;99.90;;;;;;5058035;28;19920;-70
2022/06/09 03:28:46;;;;;;;;;;;14.00;99.90;;;;;;5058033;28;19928;-70
2022/06/09 03:31:14;;;;;;;;;;;14.10;99.90;;;;;;5038895;28;19920;-70
2022/06/09 03:33:41;;;;;;;;;;;14.10;99.90;;;;;;5068055;28;19965;-69
2022/06/09 03:36:08;;;;;;;;;;;14.10;99.90;;;;;;5057784;28;19921;-71
2022/06/09 03:38:35;;;;;;;;;;;14.10;99.90;;;;;;5076042;28;19920;-70
2022/06/09 03:41:01;;;;;;;;;;;14.10;99.90;;;;;;5075308;28;19928;-70
2022/06/09 03:43:28;;;;;;;;;;;14.10;99.90;;;;;;5076164;28;19920;-71
2022/06/09 03:45:55;;;;;;;;;;;14.10;99.90;;;;;;5076083;28;19920;-71
2022/06/09 03:48:23;;;;;;;;;;;14.10;99.90;;;;;;5062626;28;20394;-71
2022/06/09 03:50:50;;;;;;;;;;;14.10;99.90;;;;;;5038204;28;19994;-71
2022/06/09 03:53:17;;;;;;;;;;;14.10;99.90;;;;;;5038252;28;19925;-70
2022/06/09 03:55:43;;;;;;;;;;;14.10;99.90;;;;;;5054802;28;19920;-71
2022/06/09 03:58:10;;;;;;;;;;;14.10;99.90;;;;;;5055847;28;19925;-70
2022/06/09 04:00:37;;;;;;;;;;;14.10;99.90;;;;;;5038885;28;19990;-71
2022/06/09 04:03:04;;;;;;;;;;;14.20;99.90;;;;;;5036991;28;19920;-70
2022/06/09 04:05:32;;;;;;;;;;;14.20;99.90;;;;;;5055601;28;19951;-70
2022/06/09 04:07:59;;;;;;;;;;;14.20;99.90;;;;;;5037672;28;20288;-71
2022/06/09 04:10:27;;;;;;;;;;;14.20;99.90;;;;;;5037306;28;19920;-71
2022/06/09 04:12:54;;;;;;;;;;;14.20;99.90;;;;;;5055272;28;19921;-70
2022/06/09 04:15:21;;;;;;;;;;;14.20;99.90;;;;;;5058444;28;19928;-70
2022/06/09 04:17:48;;;;;;;;;;;14.20;99.90;;;;;;5073756;28;20400;-70
2022/06/09 04:20:16;;;;;;;;;;;14.30;99.90;;;;;;5075697;28;19920;-70
2022/06/09 04:22:44;;;;;;;;;;;14.30;99.90;;;;;;5074955;28;19924;-70
2022/06/09 04:25:12;;;;;;;;;;;14.30;99.90;;;;;;5076296;28;20277;-72
2022/06/09 04:27:39;;;;;;;;;;;14.30;99.90;;;;;;5059819;28;19920;-70
2022/06/09 04:30:06;;;;;;;;;;;14.40;99.90;;;;;;5073158;28;19944;-71
2022/06/09 04:32:33;;;;;;;;;;;14.40;99.90;;;;;;5056482;28;19967;-70
2022/06/09 04:34:59;;;;;;;;;;;14.40;99.90;;;;;;5062493;28;19927;-70
2022/06/09 04:40:09;;;;;;;;;;;14.60;99.90;;;;;;5052761;28;20002;-70
2022/06/09 04:42:36;;;;;;;;;;;14.80;99.90;;;;;;5073588;28;20007;-71
2022/06/09 04:45:03;;;;;;;;;;;14.70;99.90;;;;;;5048115;28;19928;-70
2022/06/09 04:47:29;;;;;;;;;;;14.70;99.90;;;;;;5057667;28;20331;-70
2022/06/09 04:49:56;;;;;;;;;;;14.70;99.90;;;;;;5056284;28;19921;-71
2022/06/09 04:52:23;;;;;;;;;;;14.80;99.90;;;;;;5070764;28;19928;-71
2022/06/09 04:54:50;;;;;;;;;;;14.80;99.90;;;;;;5048159;28;19951;-71
2022/06/09 04:57:18;;;;;;;;;;;14.80;99.90;;;;;;5049121;28;20011;-71
2022/06/09 04:59:44;;;;;;;;;;;14.80;99.90;;;;;;5048678;28;19920;-72
2022/06/09 05:02:12;;;;;;;;;;;14.80;99.90;;;;;;5052240;28;19935;-71
2022/06/09 05:04:39;;;;;;;;;;;14.70;99.90;;;;;;5055374;28;19920;-70
2022/06/09 05:07:06;;;;;;;;;;;14.70;99.90;;;;;;5053640;28;19925;-71
2022/06/09 05:09:33;;;;;;;;;;;14.70;99.90;;;;;;5047531;28;19971;-70
2022/06/09 05:11:59;;;;;;;;;;;14.80;99.90;;;;;;5057429;28;19932;-72
2022/06/09 05:14:27;;;;;;;;;;;14.80;99.90;;;;;;5059038;28;20035;-71
2022/06/09 05:16:54;;;;;;;;;;;14.80;99.90;;;;;;5052218;28;19928;-70
2022/06/09 05:19:21;;;;;;;;;;;14.90;99.90;;;;;;5051954;28;20435;-70
2022/06/09 05:21:48;;;;;;;;;;;14.90;99.90;;;;;;5064133;28;19951;-70
2022/06/09 05:24:14;;;;;;;;;;;15.00;99.90;;;;;;5063121;28;19979;-70
2022/06/09 05:26:41;;;;;;;;;;;15.00;99.90;;;;;;5068864;28;19928;-70
2022/06/09 05:29:08;;;;;;;;;;;15.00;99.90;;;;;;5048631;28;20331;-71
2022/06/09 05:31:36;;;;;;;;;;;15.10;99.90;;;;;;5066118;28;19966;-70
2022/06/09 05:34:03;;;;;;;;;;;15.10;99.90;;;;;;5049994;28;19978;-70
2022/06/09 05:36:30;;;;;;;;;;;15.10;99.90;;;;;;5054934;28;19932;-71
2022/06/09 05:47:10;;;;;;;;;;;15.50;99.90;;;;;;5062507;28;19962;-70
2022/06/09 05:49:37;;;;;;;;;;;15.60;99.90;;;;;;5019384;28;20910;-71
2022/06/09 05:52:04;;;;;;;;;;;15.60;99.90;;;;;;5044309;28;19920;-70
2022/06/09 05:54:31;;;;;;;;;;;15.70;99.90;;;;;;5044453;28;19920;-71
2022/06/09 05:56:58;;;;;;;;;;;15.60;99.90;;;;;;5066179;28;19920;-69
2022/06/09 05:59:24;;;;;;;;;;;15.60;99.90;;;;;;5064067;28;20043;-71
2022/06/09 06:01:52;;;;;;;;;;;15.60;99.90;;;;;;5065163;28;19920;-71
2022/06/09 06:04:20;;;;;;;;;;;15.60;99.90;;;;;;5061814;28;19924;-70
2022/06/09 06:06:50;;;;;;;;;;;15.60;99.90;;;;;;5070436;28;19921;-70
2022/06/09 06:09:17;;;;;;;;;;;15.70;99.90;;;;;;5050415;28;19920;-69
2022/06/09 06:11:45;;;;;;;;;;;15.70;99.90;;;;;;5035477;28;19992;-71
2022/06/09 06:14:14;;;;;;;;;;;15.60;99.90;;;;;;5035131;28;19999;-70
2022/06/09 06:16:41;;;;;;;;;;;15.60;99.90;;;;;;5035286;28;19964;-70
2022/06/09 06:19:09;;;;;;;;;;;15.50;99.90;;;;;;5053212;28;19925;-70
2022/06/09 06:21:37;;;;;;;;;;;15.60;99.90;;;;;;5035426;28;19920;-70
2022/06/09 06:24:05;;;;;;;;;;;15.70;99.90;;;;;;5055250;28;19928;-71
2022/06/09 06:26:32;;;;;;;;;;;15.80;99.90;;;;;;5052364;28;20273;-70
2022/06/09 06:28:59;;;;;;;;;;;15.90;99.90;;;;;;5065742;28;20384;-71
2022/06/09 06:31:26;;;;;;;;;;;16.00;99.90;;;;;;5072333;28;19920;-71
2022/06/09 06:33:52;;;;;;;;;;;16.30;99.90;;;;;;5073074;28;19966;-71
2022/06/09 06:36:20;;;;;;;;;;;16.50;99.90;;;;;;5072938;28;19928;-70
2022/06/09 06:38:49;;;;;;;;;;;16.70;99.90;;;;;;5071894;28;19921;-70
2022/06/09 06:41:16;;;;;;;;;;;16.80;99.90;;;;;;5056520;28;20003;-71
2022/06/09 06:43:43;;;;;;;;;;;17.00;99.90;;;;;;5059065;28;19924;-71
2022/06/09 06:46:10;;;;;;;;;;;16.70;99.90;;;;;;5076132;28;19932;-70
2022/06/09 06:48:37;;;;;;;;;;;17.10;99.90;;;;;;5076658;28;19927;-70
2022/06/09 06:51:05;;;;;;;;;;;17.10;99.90;;;;;;5057893;28;19920;-70
2022/06/09 06:53:32;;;;;;;;;;;17.30;99.90;;;;;;5076794;28;19971;-71
2022/06/09 06:56:00;;;;;;;;;;;17.30;99.90;;;;;;5058681;28;20307;-71
2022/06/09 06:58:27;;;;;;;;;;;17.40;99.90;;;;;;5074393;28;20376;-71
2022/06/09 07:00:54;;;;;;;;;;;17.50;99.90;;;;;;5075696;28;20372;-70
2022/06/09 07:03:21;;;;;;;;;;;17.50;99.90;;;;;;5058208;28;20368;-71
2022/06/09 07:05:48;;;;;;;;;;;17.60;99.90;;;;;;5075534;28;19986;-71
2022/06/09 07:08:16;;;;;;;;;;;17.60;99.90;;;;;;5075723;28;19928;-71
2022/06/09 07:10:43;;;;;;;;;;;18.20;99.90;;;;;;5076017;28;19920;-71
2022/06/09 07:13:12;;;;;;;;;;;18.80;99.90;;;;;;5058177;28;19924;-72
2022/06/09 07:15:38;;;;;;;;;;;19.00;99.90;;;;;;5069138;28;19920;-71
2022/06/09 07:18:05;;;;;;;;;;;19.00;99.90;;;;;;5085364;28;19920;-70
2022/06/09 07:20:32;;;;;;;;;;;19.30;99.90;;;;;;5060834;28;19920;-71
2022/06/09 07:22:59;;;;;;;;;;;19.60;99.90;;;;;;5078314;28;19924;-71
2022/06/09 07:25:26;;;;;;;;;;;19.70;99.90;;;;;;5095340;28;19924;-71
2022/06/09 07:27:54;;;;;;;;;;;19.70;99.90;;;;;;5074461;28;19920;-70
2022/06/09 07:30:24;;;;;;;;;;;20.10;99.90;;;;;;5076052;28;19977;-71
2022/06/09 07:32:50;;;;;;;;;;;20.70;99.90;;;;;;5057551;28;19924;-70
2022/06/09 07:35:20;;;;;;;;;;;21.10;99.90;;;;;;5075431;28;19928;-71
2022/06/09 07:37:47;;;;;;;;;;;21.30;99.90;;;;;;5058304;28;19940;-70
2022/06/09 07:40:14;;;;;;;;;;;21.70;99.90;;;;;;5057417;28;20019;-69
2022/06/09 07:42:41;;;;;;;;;;;22.20;99.90;;;;;;5075616;28;19929;-71
2022/06/09 07:45:09;;;;;;;;;;;22.20;99.90;;;;;;5075485;28;19928;-70
2022/06/09 07:47:38;;;;;;;;;;;22.40;99.90;;;;;;5073809;28;19959;-71
2022/06/09 07:50:06;;;;;;;;;;;22.10;99.90;;;;;;5057659;28;20003;-71
2022/06/09 07:52:33;;;;;;;;;;;22.10;99.90;;;;;;5056061;28;19928;-71
2022/06/09 07:55:00;;;;;;;;;;;22.20;99.90;;;;;;5070101;28;19926;-72
2022/06/09 07:57:26;;;;;;;;;;;22.20;99.90;;;;;;5075210;28;19920;-70
2022/06/09 07:59:53;;;;;;;;;;;22.50;99.90;;;;;;5075162;28;20383;-72
2022/06/09 08:02:20;;;;;;;;;;;22.40;99.90;;;;;;5074123;28;19927;-70
2022/06/09 08:04:48;;;;;;;;;;;22.00;99.90;;;;;;5060882;28;20300;-72
2022/06/09 08:07:15;;;;;;;;;;;22.20;99.90;;;;;;5072421;28;20376;-72
2022/06/09 08:09:41;;;;;;;;;;;22.70;99.90;;;;;;5036885;28;19974;-71
2022/06/09 08:12:10;;;;;;;;;;;22.60;99.90;;;;;;5054902;28;19933;-71
2022/06/09 08:14:36;;;;;;;;;;;22.20;99.90;;;;;;5055296;28;20344;-71
2022/06/09 08:17:05;;;;;;;;;;;22.10;99.90;;;;;;5037356;28;19920;-71
2022/06/09 08:19:31;;;;;;;;;;;22.50;99.90;;;;;;5038383;28;20377;-72
2022/06/09 08:22:00;;;;;;;;;;;23.10;99.90;;;;;;5055019;28;19928;-71
2022/06/09 08:24:26;;;;;;;;;;;23.70;99.90;;;;;;5054923;28;19924;-71
2022/06/09 08:26:53;;;;;;;;;;;23.80;99.90;;;;;;5037521;28;19921;-71
2022/06/09 08:29:20;;;;;;;;;;;23.90;99.90;;;;;;5067502;28;19982;-72
2022/06/09 08:31:46;;;;;;;;;;;23.70;99.90;;;;;;5056255;28;19924;-72
2022/06/09 08:34:13;;;;;;;;;;;23.90;99.90;;;;;;5074656;28;20414;-72
2022/06/09 08:36:40;;;;;;;;;;;24.30;99.90;;;;;;5073839;28;20707;-73
2022/06/09 08:39:08;;;;;;;;;;;24.90;99.90;;;;;;5057353;28;20261;-72
2022/06/09 08:41:38;;;;;;;;;;;24.70;99.90;;;;;;5056830;28;19920;-73
2022/06/09 08:44:12;;;;;;;;;;;24.50;99.90;;;;;;5056624;28;20295;-73
2022/06/09 08:46:48;;;;;;;;;;;24.40;99.90;;;;;;5074250;28;20381;-73
2022/06/09 08:49:35;;;;;;;;;;;24.20;99.90;;;;;;5056746;28;19920;-72
2022/06/09 08:52:05;;;;;;;;;;;24.60;99.90;;;;;;5047043;28;19924;-72
2022/06/09 08:54:34;;;;;;;;;;;24.40;99.90;;;;;;5054031;28;19932;-72
2022/06/09 08:57:04;;;;;;;;;;;24.10;99.90;;;;;;5055480;28;19983;-73
2022/06/09 08:59:36;;;;;;;;;;;24.60;99.90;;;;;;5051881;28;19928;-73
2022/06/09 09:02:11;;;;;;;;;;;24.70;99.90;;;;;;5055718;28;19921;-74
2022/06/09 09:04:40;;;;;;;;;;;24.40;99.50;;;;;;5053836;28;19921;-73
2022/06/09 09:07:11;;;;;;;;;;;24.60;99.60;;;;;;5056438;28;19927;-74
2022/06/09 09:09:40;;;;;;;;;;;24.80;99.80;;;;;;5073419;28;19920;-73
2022/06/09 09:12:12;;;;;;;;;;;25.20;98.50;;;;;;5073219;28;20003;-73
2022/06/09 09:14:46;;;;;;;;;;;25.20;98.30;;;;;;5047280;28;19921;-73
2022/06/09 09:17:17;;;;;;;;;;;25.50;96.60;;;;;;5053889;28;19927;-73
2022/06/09 09:19:51;;;;;;;;;;;26.00;97.00;;;;;;5035814;28;19924;-73
2022/06/09 09:22:24;;;;;;;;;;;26.20;96.60;;;;;;5036581;28;19932;-72
2022/06/09 09:24:59;;;;;;;;;;;26.30;93.90;;;;;;5053708;28;19924;-73
2022/06/09 09:27:30;;;;;;;;;;;26.10;92.60;;;;;;5067522;28;20300;-73
2022/06/09 09:30:02;;;;;;;;;;;26.10;95.10;;;;;;5046758;28;19950;-72
2022/06/09 09:32:30;;;;;;;;;;;26.20;93.50;;;;;;5035758;28;19928;-72
2022/06/09 09:34:57;;;;;;;;;;;26.40;94.70;;;;;;5052965;28;19925;-74
2022/06/09 09:37:28;;;;;;;;;;;26.30;94.90;;;;;;5054955;28;19927;-73
2022/06/09 09:39:59;;;;;;;;;;;25.80;93.40;;;;;;5055246;28;19934;-73
2022/06/09 09:42:27;;;;;;;;;;;26.00;93.90;;;;;;5064435;28;19920;-73
2022/06/09 09:44:58;;;;;;;;;;;25.60;93.70;;;;;;5027902;28;20010;-73
2022/06/09 09:47:25;;;;;;;;;;;25.30;93.80;;;;;;5062937;28;19932;-73
2022/06/09 09:49:53;;;;;;;;;;;25.50;92.70;;;;;;5039611;28;20376;-73
2022/06/09 09:52:32;;;;;;;;;;;25.30;92.50;;;;;;5052966;28;19936;-73
2022/06/09 09:55:00;;;;;;;;;;;25.40;94.20;;;;;;5063656;28;19920;-73
2022/06/09 09:57:28;;;;;;;;;;;25.70;93.50;;;;;;5055726;28;19920;-73
2022/06/09 09:59:55;;;;;;;;;;;25.40;93.40;;;;;;5055855;28;19928;-74
2022/06/09 10:10:55;;;;;;;;;;;25.30;93.30;;;;;;5055955;28;19917;-72
2022/06/09 10:13:29;;;;;;;;;;;25.00;93.30;;;;;;5073061;28;19931;-72
2022/06/09 10:15:56;;;;;;;;;;;24.50;95.30;;;;;;5053384;28;20342;-72
2022/06/09 10:18:23;;;;;;;;;;;24.30;95.10;;;;;;5073492;28;19967;-72
2022/06/09 10:21:03;;;;;;;;;;;24.20;95.40;;;;;;5056522;28;19921;-72
2022/06/09 10:23:34;;;;;;;;;;;24.60;96.50;;;;;;5058740;28;19920;-71
2022/06/09 10:26:05;;;;;;;;;;;24.50;94.80;;;;;;5064516;28;20287;-73
2022/06/09 10:28:36;;;;;;;;;;;24.50;94.30;;;;;;5051165;28;20426;-73
2022/06/09 10:31:06;;;;;;;;;;;24.80;93.40;;;;;;5055210;28;19920;-73
2022/06/09 10:33:37;;;;;;;;;;;25.70;94.80;;;;;;5075432;28;20049;-71
2022/06/09 10:36:08;;;;;;;;;;;25.20;92.50;;;;;;5076578;28;20080;-72
2022/06/09 10:38:37;;;;;;;;;;;25.00;93.10;;;;;;5058869;28;19924;-71
2022/06/09 10:41:11;;;;;;;;;;;25.20;93.30;;;;;;5073030;28;20356;-72
2022/06/09 10:43:40;;;;;;;;;;;25.30;92.70;;;;;;5044254;28;19921;-71
2022/06/09 10:46:13;;;;;;;;;;;25.40;93.20;;;;;;5034996;28;19920;-73
2022/06/09 10:57:09;;;;;;;;;;;24.80;91.80;;;;;;5054496;28;19917;-73
2022/06/09 10:59:40;;;;;;;;;;;24.90;92.90;;;;;;5053913;28;19920;-71
2022/06/09 11:02:11;;;;;;;;;;;25.20;92.80;;;;;;5053541;28;20257;-72
2022/06/09 11:04:38;;;;;;;;;;;25.70;92.20;;;;;;5066141;28;19924;-73
2022/06/09 11:07:17;;;;;;;;;;;26.20;90.40;;;;;;5055025;28;20376;-74
2022/06/09 11:09:51;;;;;;;;;;;26.20;90.30;;;;;;5052778;28;19921;-73
2022/06/09 11:12:23;;;;;;;;;;;26.50;88.50;;;;;;5051912;28;20300;-73
2022/06/09 11:14:55;;;;;;;;;;;26.70;87.60;;;;;;5058380;28;19920;-71
2022/06/09 11:17:33;;;;;;;;;;;26.60;86.30;;;;;;5034646;28;19921;-72
2022/06/09 11:20:07;;;;;;;;;;;26.80;88.70;;;;;;5051949;28;19920;-73
2022/06/09 11:22:39;;;;;;;;;;;26.80;85.20;;;;;;5051503;28;20372;-73
2022/06/09 11:25:15;;;;;;;;;;;26.70;84.10;;;;;;5052282;28;19971;-74
2022/06/09 11:27:46;;;;;;;;;;;26.80;83.80;;;;;;5059325;28;19927;-72
2022/06/09 11:30:19;;;;;;;;;;;26.70;81.40;;;;;;5057086;28;19924;-73
2022/06/09 11:32:49;;;;;;;;;;;26.90;83.40;;;;;;5075368;28;20060;-73
2022/06/09 11:35:21;;;;;;;;;;;27.40;84.20;;;;;;5075817;28;19921;-73
2022/06/09 11:37:59;;;;;;;;;;;27.40;81.80;;;;;;5075749;28;19978;-72
2022/06/09 11:40:30;;;;;;;;;;;26.80;81.50;;;;;;5074059;28;19920;-73
2022/06/09 11:43:05;;;;;;;;;;;27.00;83.30;;;;;;5073887;28;19924;-72
2022/06/09 11:45:33;;;;;;;;;;;26.50;81.10;;;;;;5057673;28;19920;-72
2022/06/09 11:48:02;;;;;;;;;;;26.70;82.10;;;;;;5046764;28;19920;-72
2022/06/09 11:50:31;;;;;;;;;;;26.50;83.30;;;;;;5020855;28;19954;-72
2022/06/09 11:52:58;;;;;;;;;;;26.50;81.50;;;;;;5073025;28;20342;-72
2022/06/09 11:55:57;;;;;;;;;;;26.40;82.80;;;;;;5062860;28;19920;-71
2022/06/09 11:58:37;;;;;;;;;;;26.60;82.00;;;;;;5067450;28;19924;-72
2022/06/09 12:01:09;;;;;;;;;;;26.30;82.50;;;;;;5053592;28;19925;-72
2022/06/09 12:03:56;;;;;;;;;;;26.30;82.30;;;;;;5057466;28;19935;-71
2022/06/09 12:06:26;;;;;;;;;;;26.50;81.50;;;;;;5075435;28;19973;-72
2022/06/09 12:09:02;;;;;;;;;;;26.40;81.80;;;;;;5074920;28;19921;-73
2022/06/09 12:11:43;;;;;;;;;;;26.90;81.70;;;;;;5075910;28;19974;-72
2022/06/09 12:14:17;;;;;;;;;;;26.30;81.60;;;;;;5076922;28;19920;-72
2022/06/09 12:16:56;;;;;;;;;;;26.30;83.10;;;;;;5095466;28;19944;-73
2022/06/09 12:19:24;;;;;;;;;;;26.50;81.20;;;;;;5076756;28;19919;-72
2022/06/09 12:21:52;;;;;;;;;;;26.40;83.30;;;;;;5094857;28;19973;-72
2022/06/09 12:24:31;;;;;;;;;;;26.20;82.10;;;;;;5077288;28;20049;-73
2022/06/09 12:27:17;;;;;;;;;;;26.10;83.20;;;;;;5075366;28;19920;-73
2022/06/09 12:29:45;;;;;;;;;;;26.20;82.30;;;;;;5064557;28;19934;-73
2022/06/09 12:32:28;;;;;;;;;;;25.80;83.20;;;;;;5056979;28;19924;-73
2022/06/09 12:34:56;;;;;;;;;;;25.10;83.80;;;;;;5056814;28;19921;-72
2022/06/09 12:37:24;;;;;;;;;;;25.20;86.60;;;;;;5050783;28;19920;-72
2022/06/09 12:39:53;;;;;;;;;;;25.20;88.30;;;;;;5053538;28;19928;-73
2022/06/09 12:42:21;;;;;;;;;;;24.80;88.30;;;;;;5054632;28;20434;-74
2022/06/09 12:44:50;;;;;;;;;;;24.90;89.60;;;;;;5054211;28;20008;-73
2022/06/09 12:47:17;;;;;;;;;;;25.30;86.20;;;;;;5054182;28;20004;-73
2022/06/09 12:49:46;;;;;;;;;;;25.60;87.50;;;;;;5053487;28;20362;-73
2022/06/09 12:52:20;;;;;;;;;;;25.10;86.00;;;;;;5036147;28;19921;-73
2022/06/09 12:54:48;;;;;;;;;;;25.20;87.30;;;;;;5036809;28;20333;-72
2022/06/09 12:57:20;;;;;;;;;;;25.00;87.60;;;;;;5040604;28;19928;-73
2022/06/09 12:59:59;;;;;;;;;;;25.00;86.80;;;;;;5056917;28;19927;-74
2022/06/09 13:02:27;;;;;;;;;;;25.10;87.10;;;;;;5055885;28;19920;-74
2022/06/09 13:04:56;;;;;;;;;;;25.10;87.50;;;;;;5073273;28;19926;-73
2022/06/09 13:07:24;;;;;;;;;;;24.80;88.50;;;;;;5062066;28;20031;-73
2022/06/09 13:10:05;;;;;;;;;;;24.70;88.40;;;;;;5054000;28;20038;-73
2022/06/09 13:15:24;;;;;;;;;;;24.50;88.30;;;;;;5053971;28;19986;-72
2022/06/09 13:17:51;;;;;;;;;;;24.70;88.50;;;;;;5053730;28;19920;-72
2022/06/09 13:20:21;;;;;;;;;;;24.80;85.90;;;;;;5036092;28;19925;-72
2022/06/09 13:22:48;;;;;;;;;;;25.20;86.50;;;;;;5035861;28;19924;-73
2022/06/09 13:25:17;;;;;;;;;;;25.40;85.90;;;;;;5036089;28;19932;-73
2022/06/09 13:27:45;;;;;;;;;;;25.50;84.70;;;;;;5036095;28;19932;-74
2022/06/09 13:30:32;;;;;;;;;;;25.30;83.80;;;;;;5039095;28;20014;-75
2022/06/09 13:32:59;;;;;;;;;;;24.80;83.90;;;;;;5073267;28;19943;-73
2022/06/09 13:35:30;;;;;;;;;;;24.60;85.90;;;;;;5073669;28;19921;-74
2022/06/09 13:38:04;;;;;;;;;;;25.00;85.30;;;;;;5055999;28;19924;-72
2022/06/09 13:40:41;;;;;;;;;;;25.00;85.10;;;;;;5054178;28;19986;-72
2022/06/09 13:43:13;;;;;;;;;;;24.60;87.20;;;;;;5073552;28;19924;-73
2022/06/09 13:45:40;;;;;;;;;;;24.50;87.10;;;;;;5047297;28;19920;-73
2022/06/09 13:48:15;;;;;;;;;;;24.10;88.20;;;;;;5035379;28;19920;-73
2022/06/09 13:50:44;;;;;;;;;;;23.80;88.40;;;;;;5053077;28;19921;-73
2022/06/09 13:53:15;;;;;;;;;;;23.70;90.00;;;;;;5052786;28;19925;-73
2022/06/09 13:55:42;;;;;;;;;;;23.60;88.50;;;;;;5051831;28;19921;-72
2022/06/09 13:58:10;;;;;;;;;;;23.40;90.10;;;;;;5046558;28;20007;-72
2022/06/09 14:00:40;;;;;;;;;;;23.20;90.00;;;;;;5054008;28;19920;-73
2022/06/09 14:03:08;;;;;;;;;;;23.40;90.60;;;;;;5035798;28;20364;-72
2022/06/09 14:05:38;;;;;;;;;;;23.30;90.20;;;;;;5049285;28;19970;-72
2022/06/09 14:08:06;;;;;;;;;;;23.10;89.30;;;;;;5035718;28;19921;-73
2022/06/09 14:10:33;;;;;;;;;;;23.00;90.20;;;;;;5053988;28;19924;-72
2022/06/09 14:13:00;;;;;;;;;;;22.80;90.40;;;;;;5052801;28;19924;-72
2022/06/09 14:15:28;;;;;;;;;;;22.70;90.70;;;;;;5034867;28;19932;-71
2022/06/09 14:17:56;;;;;;;;;;;22.60;91.00;;;;;;5053330;28;19960;-73
2022/06/09 14:20:24;;;;;;;;;;;22.50;90.70;;;;;;5053789;28;19928;-72
2022/06/09 14:22:51;;;;;;;;;;;22.70;91.30;;;;;;5034888;28;19920;-71
2022/06/09 14:25:19;;;;;;;;;;;22.80;90.90;;;;;;5043779;28;20439;-72
2022/06/09 14:27:46;;;;;;;;;;;22.90;90.70;;;;;;5073418;28;19920;-72
2022/06/09 14:30:13;;;;;;;;;;;23.20;91.10;;;;;;5060714;28;19937;-72
2022/06/09 14:32:40;;;;;;;;;;;23.30;90.00;;;;;;5072077;28;19921;-71
2022/06/09 14:35:07;;;;;;;;;;;23.40;90.30;;;;;;5072770;28;19920;-72
2022/06/09 14:37:34;;;;;;;;;;;23.20;90.30;;;;;;5073062;28;19924;-72
2022/06/09 14:40:01;;;;;;;;;;;23.20;90.90;;;;;;5054610;28;19974;-72
2022/06/09 14:42:29;;;;;;;;;;;23.00;89.70;;;;;;5068849;28;19995;-71
2022/06/09 14:44:56;;;;;;;;;;;22.90;89.30;;;;;;5002580;28;20628;-71
2022/06/09 14:47:24;;;;;;;;;;;23.00;90.70;;;;;;5067637;28;20299;-72
2022/06/09 14:49:51;;;;;;;;;;;23.00;90.20;;;;;;5071311;28;20390;-71
2022/06/09 14:52:18;;;;;;;;;;;23.10;90.60;;;;;;5054103;28;19985;-71
2022/06/09 14:54:45;;;;;;;;;;;23.10;90.90;;;;;;5072469;28;20333;-70
2022/06/09 14:57:12;;;;;;;;;;;23.10;90.40;;;;;;5072061;28;20471;-72